Time;durP1;ratioP1;P1;durP2;ratioP2;P2;SDS_P1;SDS_P2;PMS_P1;PMS_P2;Temp;Humidity;BMP_temperature;BMP_pressure;BME280_temperature;BME280_humidity;BME280_pressure;Samples;Min_cycle;Max_cycle;Signal;HPM_P1;HPM_P2
2021/04/29 00:01:48;;;;;;;4.28;2.30;;;4.90;99.90;;;;;;4373766;32;20064;-61
2021/04/29 00:04:15;;;;;;;2.60;2.25;;;4.80;99.90;;;;;;4349155;32;20226;-60
2021/04/29 00:06:41;;;;;;;2.37;1.98;;;4.80;99.90;;;;;;4343197;32;20167;-65
2021/04/29 00:09:08;;;;;;;4.03;2.00;;;4.80;99.90;;;;;;4354026;32;20116;-60
2021/04/29 00:11:35;;;;;;;2.53;2.15;;;4.80;99.90;;;;;;4349524;32;20146;-61
2021/04/29 00:14:01;;;;;;;2.78;2.08;;;4.70;99.90;;;;;;4353473;32;20067;-60
2021/04/29 00:16:28;;;;;;;2.47;2.28;;;4.70;99.90;;;;;;4349902;32;20497;-60
2021/04/29 00:18:54;;;;;;;3.08;2.05;;;4.80;99.90;;;;;;4377872;32;20101;-60
2021/04/29 00:21:21;;;;;;;2.12;1.92;;;4.70;99.90;;;;;;4329227;32;20113;-61
2021/04/29 00:23:47;;;;;;;2.25;2.05;;;4.70;99.90;;;;;;4345351;32;20504;-60
2021/04/29 00:26:13;;;;;;;2.35;2.10;;;4.70;99.90;;;;;;4354268;32;20509;-62
2021/04/29 00:28:40;;;;;;;4.93;2.53;;;4.70;99.90;;;;;;4379088;32;20085;-60
2021/04/29 00:31:06;;;;;;;2.90;2.20;;;4.70;99.90;;;;;;4366262;32;20063;-61
2021/04/29 00:33:32;;;;;;;2.60;2.12;;;4.80;99.90;;;;;;4374046;32;20074;-60
2021/04/29 00:36:00;;;;;;;3.53;2.10;;;4.80;99.90;;;;;;4351075;32;20185;-60
2021/04/29 00:38:30;;;;;;;2.47;2.15;;;4.80;99.90;;;;;;4373993;32;20080;-61
2021/04/29 00:40:57;;;;;;;2.50;1.77;;;4.80;99.90;;;;;;4340022;32;20096;-60
2021/04/29 00:43:23;;;;;;;2.20;1.83;;;4.80;99.90;;;;;;4339346;32;20082;-60
2021/04/29 00:45:49;;;;;;;2.75;2.30;;;4.90;99.90;;;;;;4354915;32;20508;-61
2021/04/29 00:48:16;;;;;;;2.72;2.00;;;4.90;99.90;;;;;;4339340;32;20076;-62
2021/04/29 00:50:42;;;;;;;2.83;2.30;;;4.90;99.90;;;;;;4352941;32;20170;-60
2021/04/29 00:53:08;;;;;;;2.20;1.95;;;4.90;99.90;;;;;;4354032;32;20066;-60
2021/04/29 00:55:35;;;;;;;2.80;2.28;;;4.90;99.90;;;;;;4387358;32;20102;-61
2021/04/29 00:58:02;;;;;;;2.62;2.30;;;4.80;99.90;;;;;;4334011;32;20092;-61
2021/04/29 01:00:28;;;;;;;2.60;2.20;;;4.80;99.90;;;;;;4354031;32;20066;-60
2021/04/29 01:03:07;;;;;;;2.85;2.10;;;4.80;99.90;;;;;;4353726;32;20085;-60
2021/04/29 01:05:49;;;;;;;2.72;2.30;;;4.80;99.90;;;;;;4339777;32;20069;-60
2021/04/29 01:08:30;;;;;;;2.42;2.17;;;4.80;99.90;;;;;;4329472;32;20085;-60
2021/04/29 01:11:15;;;;;;;3.22;2.17;;;4.70;99.90;;;;;;4352473;32;20073;-61
2021/04/29 01:13:48;;;;;;;3.10;2.28;;;4.70;99.90;;;;;;4349888;32;20074;-60
2021/04/29 01:16:17;;;;;;;2.80;2.00;;;4.70;99.90;;;;;;4336348;32;20085;-61
2021/04/29 01:18:43;;;;;;;2.70;2.35;;;4.60;99.90;;;;;;4351238;32;20161;-60
2021/04/29 01:21:14;;;;;;;2.20;1.95;;;4.60;99.90;;;;;;4338589;32;20057;-61
2021/04/29 01:23:44;;;;;;;2.50;2.17;;;4.60;99.90;;;;;;4354517;32;20094;-61
2021/04/29 01:26:29;;;;;;;3.17;2.20;;;4.50;99.90;;;;;;4378077;32;20138;-59
2021/04/29 01:28:56;;;;;;;2.50;2.30;;;4.60;99.90;;;;;;4378268;32;20057;-60
2021/04/29 01:31:29;;;;;;;3.60;2.28;;;4.60;99.90;;;;;;4353503;32;20081;-60
2021/04/29 01:34:00;;;;;;;2.62;2.28;;;4.60;99.90;;;;;;4351700;32;20504;-61
2021/04/29 01:36:28;;;;;;;3.17;2.20;;;4.60;99.90;;;;;;4342980;32;20106;-60
2021/04/29 01:38:55;;;;;;;2.47;2.20;;;4.50;99.90;;;;;;4351300;32;20089;-60
2021/04/29 01:41:22;;;;;;;2.90;2.25;;;4.60;99.90;;;;;;4353425;32;20166;-60
2021/04/29 01:43:49;;;;;;;4.28;2.40;;;4.60;99.90;;;;;;4338521;32;20474;-59
2021/04/29 01:46:15;;;;;;;3.97;2.15;;;4.60;99.90;;;;;;4340893;32;20080;-61
2021/04/29 01:48:42;;;;;;;3.03;2.37;;;4.60;99.90;;;;;;4340837;32;20065;-61
2021/04/29 01:51:09;;;;;;;2.45;2.25;;;4.50;99.90;;;;;;4350229;32;20069;-61
2021/04/29 01:53:35;;;;;;;4.07;2.47;;;4.60;99.90;;;;;;4353050;32;20093;-60
2021/04/29 01:56:01;;;;;;;4.55;2.50;;;4.60;99.90;;;;;;4350660;32;20066;-60
2021/04/29 01:58:27;;;;;;;2.83;2.30;;;4.60;99.90;;;;;;4346293;32;20061;-60
2021/04/29 02:00:54;;;;;;;3.17;2.35;;;4.60;99.90;;;;;;4337013;32;20090;-62
2021/04/29 02:03:20;;;;;;;2.95;2.45;;;4.70;99.90;;;;;;4337371;32;20600;-60
2021/04/29 02:05:46;;;;;;;3.37;2.45;;;4.70;99.90;;;;;;4379715;32;20438;-60
2021/04/29 02:08:13;;;;;;;3.60;2.45;;;4.70;99.90;;;;;;4362722;32;20085;-59
2021/04/29 02:10:39;;;;;;;3.17;2.47;;;4.70;99.90;;;;;;4362067;32;20076;-60
2021/04/29 02:13:09;;;;;;;5.28;2.50;;;4.70;99.90;;;;;;4377397;32;20478;-61
2021/04/29 02:15:44;;;;;;;3.17;2.60;;;4.70;99.90;;;;;;4356463;32;20211;-62
2021/04/29 02:18:17;;;;;;;2.85;2.40;;;4.70;99.90;;;;;;4345491;32;20089;-61
2021/04/29 02:20:44;;;;;;;3.30;2.37;;;4.70;99.90;;;;;;4360154;32;20106;-61
2021/04/29 02:23:13;;;;;;;4.65;2.50;;;4.70;99.90;;;;;;4313730;32;20093;-60
2021/04/29 02:25:40;;;;;;;3.65;2.47;;;4.70;99.90;;;;;;4343421;32;20080;-60
2021/04/29 02:28:06;;;;;;;4.75;2.50;;;4.80;99.90;;;;;;4340089;32;20165;-61
2021/04/29 02:30:33;;;;;;;3.28;2.45;;;4.80;99.90;;;;;;4353990;32;20069;-60
2021/04/29 02:33:00;;;;;;;2.62;2.42;;;4.90;99.90;;;;;;4339189;32;20073;-61
2021/04/29 02:35:27;;;;;;;3.22;2.33;;;4.90;99.90;;;;;;4351732;32;20095;-60
2021/04/29 02:37:54;;;;;;;3.65;2.40;;;4.90;99.90;;;;;;4342360;32;20489;-60
2021/04/29 02:40:21;;;;;;;2.65;2.20;;;5.00;99.90;;;;;;4337521;32;20094;-60
2021/04/29 02:42:47;;;;;;;3.15;2.42;;;5.00;99.90;;;;;;4374359;32;20069;-60
2021/04/29 02:45:16;;;;;;;3.97;2.35;;;5.10;99.90;;;;;;4362193;32;20097;-60
2021/04/29 02:47:50;;;;;;;3.25;2.37;;;5.10;99.90;;;;;;4337573;32;20517;-60
2021/04/29 02:50:19;;;;;;;3.28;2.40;;;5.20;99.90;;;;;;4338357;32;20068;-62
2021/04/29 02:52:45;;;;;;;4.80;2.45;;;5.20;99.90;;;;;;4336334;32;20532;-60
2021/04/29 02:55:12;;;;;;;2.80;2.40;;;5.30;99.90;;;;;;4349606;32;20089;-60
2021/04/29 02:57:39;;;;;;;4.15;2.50;;;5.40;99.90;;;;;;4330945;32;20104;-61
2021/04/29 03:00:16;;;;;;;2.78;2.28;;;5.50;99.90;;;;;;4355559;32;20082;-60
2021/04/29 03:02:42;;;;;;;3.55;2.60;;;5.50;99.90;;;;;;4339890;32;20078;-61
2021/04/29 03:05:11;;;;;;;4.12;2.28;;;5.60;99.90;;;;;;4339746;32;20512;-60
2021/04/29 03:07:38;;;;;;;3.67;2.20;;;5.60;99.90;;;;;;4350729;32;20082;-60
2021/04/29 03:10:07;;;;;;;3.80;2.50;;;5.60;99.90;;;;;;4345177;32;20161;-60
2021/04/29 03:12:33;;;;;;;4.00;2.60;;;5.70;99.90;;;;;;4350069;32;20077;-61
2021/04/29 03:15:00;;;;;;;3.25;2.40;;;5.70;99.90;;;;;;4349393;32;20062;-60
2021/04/29 03:17:26;;;;;;;3.80;2.55;;;5.80;99.90;;;;;;4326659;32;20081;-60
2021/04/29 03:19:53;;;;;;;4.35;2.60;;;5.80;99.90;;;;;;4329076;32;20066;-60
2021/04/29 03:22:20;;;;;;;5.75;2.78;;;5.90;99.90;;;;;;4336718;32;20073;-62
2021/04/29 03:24:48;;;;;;;3.87;2.60;;;5.90;99.90;;;;;;4337468;32;20166;-61
2021/04/29 03:27:15;;;;;;;3.40;2.50;;;5.90;99.90;;;;;;4351038;32;20069;-61
2021/04/29 03:29:42;;;;;;;3.65;2.55;;;6.10;99.90;;;;;;4330150;32;20085;-61
2021/04/29 03:32:08;;;;;;;3.95;2.70;;;6.10;99.90;;;;;;4370184;32;20508;-61
2021/04/29 03:34:34;;;;;;;5.45;2.42;;;6.20;99.90;;;;;;4374113;32;20271;-61
2021/04/29 03:37:00;;;;;;;2.85;2.30;;;6.20;99.90;;;;;;4363103;32;20097;-61
2021/04/29 03:39:26;;;;;;;4.32;2.60;;;6.30;99.90;;;;;;4376706;32;20078;-60
2021/04/29 03:41:53;;;;;;;3.22;2.30;;;6.40;99.90;;;;;;4362476;32;20070;-61
2021/04/29 03:44:19;;;;;;;3.25;2.30;;;6.50;99.90;;;;;;4365611;32;20078;-59
2021/04/29 03:46:45;;;;;;;5.85;2.90;;;6.60;99.90;;;;;;4364736;32;20541;-59
2021/04/29 03:49:11;;;;;;;5.30;2.80;;;6.60;99.90;;;;;;4352101;32;20069;-60
2021/04/29 03:51:37;;;;;;;4.35;2.90;;;6.50;99.90;;;;;;4358932;32;20165;-61
2021/04/29 03:54:04;;;;;;;4.43;2.78;;;6.50;99.90;;;;;;4377008;32;20070;-60
2021/04/29 03:56:30;;;;;;;3.35;2.60;;;6.50;99.90;;;;;;4374947;32;20062;-60
2021/04/29 03:58:56;;;;;;;3.58;2.50;;;6.50;99.90;;;;;;4380606;32;20156;-60
2021/04/29 04:01:22;;;;;;;3.30;2.40;;;6.50;99.90;;;;;;4340001;32;20584;-60
2021/04/29 04:03:49;;;;;;;3.05;2.12;;;6.40;99.90;;;;;;4334043;32;20085;-61
2021/04/29 04:06:15;;;;;;;5.22;2.80;;;6.40;99.90;;;;;;4348737;32;20078;-61
2021/04/29 04:08:41;;;;;;;3.12;2.47;;;6.50;99.90;;;;;;4378090;32;20106;-61
2021/04/29 04:11:08;;;;;;;3.47;2.40;;;6.40;99.90;;;;;;4351831;32;20105;-61
2021/04/29 04:13:34;;;;;;;4.62;2.72;;;6.50;99.90;;;;;;4369187;32;20504;-60
2021/04/29 04:16:00;;;;;;;6.97;3.30;;;6.50;99.90;;;;;;4359325;32;20085;-60
2021/04/29 04:18:26;;;;;;;3.53;2.65;;;6.60;99.90;;;;;;4337282;32;20523;-60
2021/04/29 04:20:53;;;;;;;3.25;2.50;;;6.70;99.90;;;;;;4376429;32;20163;-61
2021/04/29 04:23:19;;;;;;;4.32;2.35;;;6.90;99.90;;;;;;4366644;32;20145;-61
2021/04/29 04:25:45;;;;;;;3.62;2.40;;;6.90;99.90;;;;;;4342493;32;20200;-61
2021/04/29 04:28:11;;;;;;;4.70;2.33;;;7.00;99.90;;;;;;4355103;32;20254;-61
2021/04/29 04:30:38;;;;;;;3.22;2.40;;;7.10;99.90;;;;;;4367738;32;20505;-60
2021/04/29 04:33:04;;;;;;;3.75;2.72;;;7.10;99.90;;;;;;4378178;32;20069;-60
2021/04/29 04:35:31;;;;;;;4.80;2.60;;;7.10;99.90;;;;;;4328539;32;20507;-61
2021/04/29 04:37:57;;;;;;;3.75;2.70;;;7.20;99.90;;;;;;4351706;32;20074;-60
2021/04/29 04:40:23;;;;;;;3.30;2.47;;;7.50;99.90;;;;;;4361131;32;20158;-60
2021/04/29 04:42:49;;;;;;;4.40;2.75;;;8.90;99.90;;;;;;4366301;32;20073;-61
2021/04/29 04:45:16;;;;;;;4.25;2.70;;;9.40;99.90;;;;;;4378276;32;20143;-60
2021/04/29 04:47:42;;;;;;;3.62;2.50;;;9.90;99.90;;;;;;4360910;32;20082;-61
2021/04/29 04:50:09;;;;;;;5.50;3.05;;;9.50;99.90;;;;;;4359999;32;20138;-60
2021/04/29 04:52:36;;;;;;;5.68;2.90;;;9.90;99.90;;;;;;4354556;32;20205;-61
2021/04/29 04:55:03;;;;;;;4.22;2.62;;;10.00;99.90;;;;;;4340488;32;20097;-60
2021/04/29 04:57:29;;;;;;;3.87;2.60;;;10.50;99.90;;;;;;4339795;32;20090;-61
2021/04/29 04:59:55;;;;;;;3.65;2.75;;;9.80;99.90;;;;;;4359297;32;20073;-61
2021/04/29 05:02:22;;;;;;;4.60;2.80;;;10.30;99.90;;;;;;4392904;32;20522;-61
2021/04/29 05:04:48;;;;;;;4.30;2.53;;;10.50;99.90;;;;;;4351106;32;20082;-61
2021/04/29 05:07:15;;;;;;;4.07;2.70;;;11.00;99.90;;;;;;4330576;32;20058;-60
2021/04/29 05:09:42;;;;;;;5.75;2.30;;;11.40;96.60;;;;;;4364275;32;20081;-60
2021/04/29 05:12:10;;;;;;;5.35;2.83;;;11.40;94.80;;;;;;4364624;32;20177;-61
2021/04/29 05:14:37;;;;;;;3.42;2.40;;;11.10;92.80;;;;;;4348727;32;20508;-61
2021/04/29 05:17:03;;;;;;;4.95;2.80;;;11.00;90.90;;;;;;4377355;32;20507;-60
2021/04/29 05:19:29;;;;;;;5.22;2.53;;;11.10;90.80;;;;;;4366158;32;20078;-61
2021/04/29 05:21:56;;;;;;;3.37;2.50;;;11.10;88.00;;;;;;4355677;32;20163;-60
2021/04/29 05:24:22;;;;;;;6.37;2.60;;;10.80;90.80;;;;;;4333799;32;20078;-61
2021/04/29 05:26:48;;;;;;;5.90;2.95;;;11.20;87.50;;;;;;4343198;32;20445;-62
2021/04/29 05:29:15;;;;;;;3.50;2.85;;;11.40;83.00;;;;;;4365605;32;20100;-61
2021/04/29 05:31:41;;;;;;;4.07;2.87;;;11.60;82.10;;;;;;4387259;32;20078;-60
2021/04/29 05:34:07;;;;;;;5.25;2.60;;;11.00;81.20;;;;;;4363061;32;20065;-60
2021/04/29 05:36:34;;;;;;;3.58;2.45;;;11.90;75.20;;;;;;4386977;32;20070;-61
2021/04/29 05:39:00;;;;;;;5.93;2.80;;;11.90;74.10;;;;;;4337078;32;20078;-61
2021/04/29 05:41:26;;;;;;;4.60;2.80;;;11.80;73.60;;;;;;4342710;32;20058;-62
2021/04/29 05:43:53;;;;;;;5.57;2.70;;;12.10;71.90;;;;;;4363977;32;20084;-60
2021/04/29 05:46:19;;;;;;;4.57;3.10;;;12.20;73.60;;;;;;4350602;32;20074;-60
2021/04/29 05:48:45;;;;;;;4.72;2.60;;;11.90;72.20;;;;;;4372304;32;20508;-58
2021/04/29 05:51:11;;;;;;;4.10;2.67;;;11.90;70.00;;;;;;4365426;32;20061;-62
2021/04/29 05:53:37;;;;;;;3.70;2.70;;;12.20;68.10;;;;;;4372374;32;20081;-60
2021/04/29 05:56:04;;;;;;;5.20;2.50;;;12.10;64.30;;;;;;4370464;32;20088;-61
2021/04/29 05:58:31;;;;;;;5.03;2.62;;;12.60;61.10;;;;;;4369072;32;20061;-63
2021/04/29 06:00:57;;;;;;;3.33;2.85;;;13.00;60.90;;;;;;4361423;32;20522;-60
2021/04/29 06:03:23;;;;;;;3.83;2.72;;;12.30;60.30;;;;;;4355361;32;20089;-62
2021/04/29 06:05:50;;;;;;;4.72;2.65;;;13.20;57.40;;;;;;4335963;32;20069;-64
2021/04/29 06:08:16;;;;;;;3.92;2.80;;;12.70;60.00;;;;;;4363057;32;20593;-61
2021/04/29 06:10:43;;;;;;;3.65;2.85;;;12.70;57.10;;;;;;4352225;32;20501;-61
2021/04/29 06:13:09;;;;;;;4.10;2.80;;;13.70;55.90;;;;;;4374588;32;21016;-64
2021/04/29 06:15:36;;;;;;;4.62;2.60;;;13.30;53.60;;;;;;4345241;32;20125;-62
2021/04/29 06:18:02;;;;;;;3.67;2.78;;;13.20;55.80;;;;;;4348132;32;20054;-60
2021/04/29 06:20:29;;;;;;;5.78;2.80;;;13.40;51.90;;;;;;4336746;32;20066;-60
2021/04/29 06:22:55;;;;;;;5.12;2.85;;;11.80;62.40;;;;;;4363031;32;20080;-61
2021/04/29 06:25:23;;;;;;;4.78;2.65;;;11.60;67.20;;;;;;4345674;32;20530;-61
2021/04/29 06:27:49;;;;;;;4.18;2.58;;;11.90;64.10;;;;;;4356969;32;20201;-62
2021/04/29 06:30:16;;;;;;;7.87;2.50;;;11.50;67.20;;;;;;4378701;32;20090;-58
2021/04/29 06:32:43;;;;;;;4.30;2.60;;;11.60;66.30;;;;;;4354285;32;20108;-58
2021/04/29 06:35:10;;;;;;;3.92;2.55;;;11.10;70.60;;;;;;4361829;32;20065;-56
2021/04/29 06:37:37;;;;;;;3.35;2.50;;;11.20;69.00;;;;;;4354675;32;20117;-57
2021/04/29 06:40:04;;;;;;;4.18;2.60;;;11.30;65.60;;;;;;4354324;32;20089;-56
2021/04/29 06:42:30;;;;;;;3.90;2.60;;;11.30;65.20;;;;;;4357810;32;20062;-57
2021/04/29 06:44:56;;;;;;;3.25;2.40;;;11.30;67.00;;;;;;4372488;32;20126;-56
2021/04/29 06:47:26;;;;;;;4.43;2.30;;;11.40;63.20;;;;;;4366836;32;20073;-57
2021/04/29 06:49:54;;;;;;;2.28;2.05;;;12.00;61.60;;;;;;4345318;32;20066;-58
2021/04/29 06:52:20;;;;;;;2.75;2.20;;;11.90;58.70;;;;;;4368463;32;20137;-57
2021/04/29 06:54:47;;;;;;;4.82;2.40;;;12.30;56.20;;;;;;4361987;32;20069;-58
2021/04/29 06:57:14;;;;;;;5.90;2.22;;;12.00;53.70;;;;;;4345261;32;20228;-57
2021/04/29 06:59:41;;;;;;;3.75;2.50;;;12.60;52.20;;;;;;4374113;32;20155;-58
2021/04/29 07:02:08;;;;;;;4.32;2.08;;;12.50;50.80;;;;;;4359435;32;20533;-57
2021/04/29 07:07:14;;;;;;;4.50;2.47;;;12.50;47.60;;;;;;3811392;37;20055;-58
2021/04/29 07:09:40;;;;;;;2.85;2.15;;;12.20;47.40;;;;;;4354168;32;20212;-57
2021/04/29 07:12:07;;;;;;;2.72;2.08;;;12.40;48.00;;;;;;4367943;32;20176;-59
2021/04/29 07:14:33;;;;;;;2.67;2.05;;;12.20;47.60;;;;;;4349314;32;20472;-59
2021/04/29 07:17:00;;;;;;;2.92;2.20;;;12.20;47.50;;;;;;4371859;32;20074;-58
2021/04/29 07:19:26;;;;;;;2.17;1.85;;;12.20;45.80;;;;;;4339661;32;20066;-61
2021/04/29 07:21:53;;;;;;;3.00;2.00;;;12.50;44.70;;;;;;4377327;32;20086;-56
2021/04/29 07:24:19;;;;;;;2.22;2.00;;;12.30;43.60;;;;;;4347307;32;20102;-58
2021/04/29 07:26:45;;;;;;;3.00;2.10;;;12.60;42.30;;;;;;4372984;32;20158;-58
2021/04/29 07:29:12;;;;;;;4.53;2.00;;;12.40;40.80;;;;;;4355379;32;20576;-56
2021/04/29 07:31:39;;;;;;;5.15;2.12;;;12.70;39.80;;;;;;4374578;32;20069;-58
2021/04/29 07:34:05;;;;;;;3.95;2.20;;;13.10;39.90;;;;;;4351756;32;20081;-59
2021/04/29 07:36:31;;;;;;;3.17;2.05;;;12.70;37.50;;;;;;4363227;32;20058;-60
2021/04/29 07:38:59;;;;;;;3.70;2.10;;;12.70;37.10;;;;;;4372995;32;20153;-58
2021/04/29 07:41:28;;;;;;;4.22;2.00;;;12.70;37.70;;;;;;4337112;32;20202;-58
2021/04/29 07:43:56;;;;;;;5.68;2.35;;;13.00;37.40;;;;;;4368322;32;20065;-59
2021/04/29 07:46:23;;;;;;;2.75;2.03;;;13.00;37.30;;;;;;4384323;32;20133;-60
2021/04/29 07:48:49;;;;;;;3.20;2.00;;;12.80;36.30;;;;;;4381855;32;20058;-58
2021/04/29 07:51:16;;;;;;;2.45;1.75;;;13.40;37.20;;;;;;4374543;32;20062;-59
2021/04/29 07:53:42;;;;;;;3.12;1.87;;;13.00;36.60;;;;;;4363038;32;20615;-58
2021/04/29 07:56:09;;;;;;;2.45;1.98;;;12.70;36.50;;;;;;4358868;32;20176;-57
2021/04/29 07:58:35;;;;;;;4.25;1.75;;;13.00;37.50;;;;;;4359917;32;20074;-56
2021/04/29 08:01:01;;;;;;;2.22;1.55;;;13.00;37.30;;;;;;4373548;32;20069;-57
2021/04/29 08:03:27;;;;;;;6.10;2.00;;;12.70;37.80;;;;;;4366147;32;20082;-56
2021/04/29 08:05:54;;;;;;;8.95;1.90;;;12.90;37.90;;;;;;4371782;32;20098;-57
2021/04/29 08:08:20;;;;;;;4.37;1.95;;;13.20;37.20;;;;;;4365459;32;20077;-57
2021/04/29 08:10:46;;;;;;;2.85;1.75;;;12.80;36.80;;;;;;4363895;32;20058;-56
2021/04/29 08:13:13;;;;;;;4.53;2.00;;;12.60;37.30;;;;;;4372778;32;20437;-57
2021/04/29 08:15:39;;;;;;;3.83;2.28;;;12.70;37.30;;;;;;4370564;32;20090;-58
2021/04/29 08:18:06;;;;;;;4.65;2.33;;;13.30;37.60;;;;;;4336697;32;20138;-60
2021/04/29 08:20:33;;;;;;;2.83;1.98;;;13.30;37.40;;;;;;4332590;32;20097;-58
2021/04/29 08:22:59;;;;;;;3.33;1.95;;;13.30;37.20;;;;;;4326901;32;20077;-58
2021/04/29 08:25:25;;;;;;;2.35;1.92;;;13.40;36.20;;;;;;4339554;32;20089;-58
2021/04/29 08:27:52;;;;;;;7.47;2.50;;;13.30;35.80;;;;;;4354086;32;20085;-57
2021/04/29 08:30:18;;;;;;;2.90;1.70;;;13.60;35.50;;;;;;4359019;32;20093;-58
2021/04/29 08:32:45;;;;;;;4.20;1.77;;;13.10;36.00;;;;;;4369502;32;20072;-60
2021/04/29 08:35:11;;;;;;;2.40;1.90;;;13.10;35.80;;;;;;4370547;32;20163;-58
2021/04/29 08:37:37;;;;;;;2.72;2.17;;;12.90;36.70;;;;;;4349342;32;20150;-60
2021/04/29 08:40:04;;;;;;;2.33;1.70;;;13.00;36.50;;;;;;4369323;32;20062;-57
2021/04/29 08:42:31;;;;;;;3.90;1.75;;;13.40;36.40;;;;;;4370768;32;20098;-58
2021/04/29 08:44:57;;;;;;;4.03;1.90;;;13.00;35.90;;;;;;4365287;32;20094;-56
2021/04/29 08:47:24;;;;;;;6.60;2.30;;;13.10;36.60;;;;;;4369955;32;20073;-58
2021/04/29 08:49:53;;;;;;;2.47;1.73;;;13.30;36.60;;;;;;4354882;32;20167;-57
2021/04/29 08:52:19;;;;;;;2.97;2.05;;;13.30;36.10;;;;;;4354127;32;20161;-56
2021/04/29 08:54:47;;;;;;;2.67;1.67;;;13.50;36.20;;;;;;4353521;32;20142;-60
2021/04/29 08:57:13;;;;;;;3.25;1.70;;;13.20;35.70;;;;;;4358918;32;20136;-58
2021/04/29 08:59:40;;;;;;;2.33;1.85;;;13.20;36.00;;;;;;4327827;32;20113;-57
2021/04/29 09:02:07;;;;;;;3.42;1.58;;;13.60;36.70;;;;;;4346965;32;20534;-60
2021/04/29 09:04:42;;;;;;;3.28;1.60;;;13.40;36.80;;;;;;4350143;32;20146;-59
2021/04/29 09:07:15;;;;;;;3.87;1.92;;;13.80;36.00;;;;;;4344048;32;20070;-58
2021/04/29 09:09:46;;;;;;;1.95;1.60;;;13.90;36.30;;;;;;4354843;32;20211;-58
2021/04/29 09:12:13;;;;;;;3.78;1.98;;;13.90;35.80;;;;;;4341871;32;20066;-56
2021/04/29 09:14:41;;;;;;;5.12;2.12;;;13.70;36.30;;;;;;4341270;32;20226;-58
2021/04/29 09:17:08;;;;;;;3.53;1.90;;;14.20;38.30;;;;;;4350712;32;20124;-58
2021/04/29 09:19:36;;;;;;;3.95;2.15;;;13.50;36.70;;;;;;4344614;32;20511;-59
2021/04/29 09:22:03;;;;;;;2.05;1.70;;;13.40;36.70;;;;;;4337557;32;20065;-58
2021/04/29 09:24:38;;;;;;;2.85;1.83;;;13.30;36.60;;;;;;4344363;32;20515;-60
2021/04/29 09:27:24;;;;;;;2.87;2.37;;;13.80;35.80;;;;;;4350509;32;20582;-60
2021/04/29 09:30:00;;;;;;;2.20;1.80;;;13.40;35.80;;;;;;4324854;32;20507;-58
2021/04/29 09:32:31;;;;;;;;;;;13.90;35.40;;;;;;4339720;32;20529;-58
2021/04/29 09:34:58;;;;;;;3.22;2.20;;;13.70;34.80;;;;;;4337279;32;19976;-59
2021/04/29 09:37:31;;;;;;;3.08;1.62;;;13.80;34.90;;;;;;4359600;32;20070;-59
2021/04/29 09:39:59;;;;;;;2.20;1.95;;;14.40;34.90;;;;;;4349919;32;20093;-59
2021/04/29 09:42:37;;;;;;;2.87;1.80;;;13.90;34.80;;;;;;4347364;32;20154;-59
2021/04/29 09:45:15;;;;;;;4.70;2.10;;;14.00;35.50;;;;;;4328844;32;20156;-60
2021/04/29 09:47:41;;;;;;;2.35;1.70;;;13.70;34.90;;;;;;4356044;32;20128;-62
2021/04/29 09:50:09;;;;;;;3.03;1.77;;;13.70;35.60;;;;;;4358233;32;20063;-59
2021/04/29 09:52:35;;;;;;;2.15;1.70;;;14.40;34.90;;;;;;4345743;32;20117;-62
2021/04/29 09:55:04;;;;;;;2.60;1.90;;;14.30;34.30;;;;;;4374149;32;20081;-60
2021/04/29 09:57:31;;;;;;;2.28;1.80;;;14.40;33.70;;;;;;4339900;32;20194;-61
2021/04/29 09:59:58;;;;;;;6.03;2.15;;;14.10;33.70;;;;;;4354550;32;20658;-59
2021/04/29 10:02:25;;;;;;;3.60;1.83;;;14.20;33.20;;;;;;4347017;32;20094;-59
2021/04/29 10:04:52;;;;;;;3.12;2.00;;;14.10;33.90;;;;;;4345119;32;20595;-60
2021/04/29 10:07:19;;;;;;;2.42;1.60;;;14.30;33.70;;;;;;4350357;32;20086;-59
2021/04/29 10:09:46;;;;;;;3.22;1.60;;;14.70;33.10;;;;;;4353832;32;20572;-60
2021/04/29 10:12:15;;;;;;;3.17;1.65;;;14.60;33.10;;;;;;4341877;32;20074;-60
2021/04/29 10:14:46;;;;;;;3.15;1.90;;;14.70;32.50;;;;;;4360133;32;20082;-60
2021/04/29 10:17:14;;;;;;;2.78;1.80;;;14.80;32.90;;;;;;4347635;32;20072;-60
2021/04/29 10:20:01;;;;;;;3.35;1.90;;;14.70;32.90;;;;;;4353455;32;20074;-60
2021/04/29 10:22:27;;;;;;;2.40;1.80;;;14.90;32.90;;;;;;4365638;32;20063;-60
2021/04/29 10:24:54;;;;;;;2.30;1.67;;;14.60;33.20;;;;;;4360519;32;20508;-59
2021/04/29 10:27:25;;;;;;;2.17;1.70;;;14.60;33.00;;;;;;4335632;32;20067;-61
2021/04/29 10:30:12;;;;;;;3.90;2.00;;;14.70;32.30;;;;;;4337583;32;20077;-59
2021/04/29 10:32:38;;;;;;;;;;;15.30;32.10;;;;;;4349641;32;20504;-60
2021/04/29 10:35:34;;;;;;;2.37;1.70;;;14.70;31.80;;;;;;4351350;32;19962;-61
2021/04/29 10:38:02;;;;;;;2.78;2.10;;;14.70;33.30;;;;;;4365428;32;20074;-61
2021/04/29 10:40:39;;;;;;;2.83;2.30;;;14.40;32.50;;;;;;4356803;32;20101;-62
2021/04/29 10:43:06;;;;;;;1.90;1.55;;;14.60;32.50;;;;;;4367028;32;20151;-61
2021/04/29 10:45:33;;;;;;;1.75;1.50;;;14.60;33.20;;;;;;4328319;32;20085;-60
2021/04/29 10:48:07;;;;;;;1.67;1.58;;;14.50;33.30;;;;;;4350145;32;20071;-60
2021/04/29 10:50:44;;;;;;;3.53;2.05;;;14.80;32.80;;;;;;4374639;32;20078;-60
2021/04/29 10:53:13;;;;;;;4.22;2.40;;;14.70;33.00;;;;;;4334579;32;20493;-60
2021/04/29 10:55:39;;;;;;;1.70;1.60;;;15.30;31.40;;;;;;4344827;32;20070;-60
2021/04/29 10:58:07;;;;;;;1.95;1.77;;;15.00;31.70;;;;;;4362545;32;20079;-61
2021/04/29 11:00:35;;;;;;;3.00;1.92;;;14.80;31.90;;;;;;4351398;32;20105;-61
2021/04/29 11:03:04;;;;;;;4.12;1.98;;;14.70;32.60;;;;;;4343585;32;20106;-60
2021/04/29 11:05:34;;;;;;;2.62;1.90;;;15.10;33.00;;;;;;4349016;32;20081;-57
2021/04/29 11:08:05;;;;;;;2.08;1.60;;;14.50;32.90;;;;;;4342558;32;20532;-58
2021/04/29 11:10:36;;;;;;;2.17;1.90;;;14.20;33.50;;;;;;4345797;32;20063;-59
2021/04/29 11:13:03;;;;;;;3.15;1.80;;;14.90;33.70;;;;;;4356483;32;20523;-60
2021/04/29 11:15:42;;;;;;;2.22;1.85;;;14.60;32.60;;;;;;4342259;32;20490;-62
2021/04/29 11:18:19;;;;;;;2.30;2.03;;;14.70;33.30;;;;;;4352529;32;20191;-60
2021/04/29 11:20:56;;;;;;;3.95;2.05;;;15.00;31.80;;;;;;4339040;32;20102;-60
2021/04/29 11:23:41;;;;;;;2.65;1.87;;;14.80;33.10;;;;;;4339150;32;20702;-59
2021/04/29 11:26:16;;;;;;;3.60;2.50;;;15.00;32.00;;;;;;4354147;32;20063;-60
2021/04/29 11:28:43;;;;;;;2.85;1.90;;;14.50;33.00;;;;;;4341493;32;20488;-59
2021/04/29 11:31:09;;;;;;;2.00;1.77;;;14.50;33.20;;;;;;4356151;32;20448;-59
2021/04/29 11:33:44;;;;;;;1.85;1.65;;;14.40;32.70;;;;;;4349370;32;20143;-59
2021/04/29 11:36:19;;;;;;;4.55;1.90;;;14.70;32.60;;;;;;4351531;32;20106;-58
2021/04/29 11:38:59;;;;;;;2.72;1.80;;;14.70;32.30;;;;;;4353094;32;20164;-59
2021/04/29 11:41:27;;;;;;;2.50;1.85;;;14.70;32.60;;;;;;4349505;32;20151;-59
2021/04/29 11:44:01;;;;;;;4.93;2.12;;;14.80;32.60;;;;;;4356081;32;20074;-61
2021/04/29 11:46:28;;;;;;;3.15;2.05;;;15.40;31.90;;;;;;4352744;32;20109;-63
2021/04/29 11:48:59;;;;;;;2.00;1.80;;;15.40;31.50;;;;;;4349509;32;20092;-61
2021/04/29 11:51:27;;;;;;;3.85;2.10;;;14.50;32.40;;;;;;4340725;32;20062;-63
2021/04/29 11:53:54;;;;;;;1.92;1.58;;;14.60;33.00;;;;;;4347246;32;20074;-59
2021/04/29 11:56:20;;;;;;;2.30;2.00;;;14.70;32.50;;;;;;4338695;32;20078;-60
2021/04/29 11:59:03;;;;;;;2.58;1.80;;;14.50;32.50;;;;;;4341856;32;20074;-61
2021/04/29 12:01:30;;;;;;;3.65;1.70;;;14.60;32.60;;;;;;4331109;32;20133;-60
2021/04/29 12:03:56;;;;;;;4.50;1.65;;;14.50;32.50;;;;;;4345158;32;20062;-62
2021/04/29 12:06:23;;;;;;;2.17;1.70;;;14.70;32.10;;;;;;4326981;32;20495;-64
2021/04/29 12:08:49;;;;;;;5.57;1.70;;;14.60;32.50;;;;;;4351287;32;20497;-58
2021/04/29 12:11:16;;;;;;;4.47;1.75;;;14.90;33.00;;;;;;4361350;32;20094;-60
2021/04/29 12:13:51;;;;;;;4.85;1.85;;;15.00;32.50;;;;;;4346737;32;20529;-61
2021/04/29 12:16:25;;;;;;;1.67;1.50;;;14.90;32.90;;;;;;4346076;32;20070;-59
2021/04/29 12:18:53;;;;;;;2.35;1.83;;;14.70;32.60;;;;;;4344645;32;20606;-61
2021/04/29 12:21:22;;;;;;;5.55;2.12;;;14.90;32.00;;;;;;4344738;32;20170;-63
2021/04/29 12:24:04;;;;;;;2.45;1.80;;;15.20;31.90;;;;;;4330994;32;20198;-59
2021/04/29 12:26:35;;;;;;;4.85;1.80;;;14.80;33.10;;;;;;4342736;32;20133;-61
2021/04/29 12:29:07;;;;;;;3.90;2.05;;;15.20;32.60;;;;;;4334346;32;20078;-58
2021/04/29 12:31:35;;;;;;;2.22;1.85;;;16.00;31.90;;;;;;4334995;32;20098;-57
2021/04/29 12:34:06;;;;;;;4.12;2.20;;;15.50;30.60;;;;;;4340597;32;20155;-60
2021/04/29 12:36:48;;;;;;;3.67;1.80;;;15.10;31.20;;;;;;4349876;32;20098;-61
2021/04/29 12:39:15;;;;;;;3.08;2.60;;;15.10;31.60;;;;;;4356871;32;20133;-61
2021/04/29 12:41:51;;;;;;;4.85;1.77;;;14.70;32.60;;;;;;4344507;32;20521;-63
2021/04/29 12:44:17;;;;;;;4.47;1.60;;;14.50;31.90;;;;;;4344160;32;20069;-61
2021/04/29 12:46:44;;;;;;;1.45;1.35;;;14.60;31.80;;;;;;4367506;32;20081;-59
2021/04/29 12:49:14;;;;;;;2.40;1.75;;;14.50;32.10;;;;;;4354973;32;20163;-61
2021/04/29 12:51:42;;;;;;;3.35;1.80;;;14.60;32.50;;;;;;4351094;32;20600;-61
2021/04/29 12:54:19;;;;;;;2.25;1.67;;;14.60;32.10;;;;;;4365231;32;20082;-60
2021/04/29 12:56:46;;;;;;;2.28;1.45;;;14.70;32.20;;;;;;4353372;32;20639;-63
2021/04/29 12:59:19;;;;;;;2.83;1.90;;;14.80;31.90;;;;;;4346451;32;20121;-59